Terminal Aerodrome Forecast
Issued by NWS North Platte, NE

Home | Current Version | Previous Version | Text Only | Print | Product List | Glossary On
Versions: 1 2 3 4 5 6 7 8 9 10 11 12 13
000
FTUS43 KLBF 051700
TAFLBF
TAF
KLBF 051729Z 0518/0618 17011KT P6SM SCT250
     FM060100 34015G24KT P6SM VCTS BKN050CB
     FM060400 35014G21KT P6SM OVC050=

USA.gov is the U.S. government's official web portal to all federal, state and local government web resources and services.